NORTHERN QUEENS  -  Freeze Warning Freeze Warning        SOUTHERN QUEENS  -  Freeze Warning Freeze Warning      

Active alerts

Northern Queens
  Details for Northern Queens Freeze Warning
Southern Queens
  Details for Southern Queens Freeze Warning


WXM80 ListenWXM80 Stop

You find our weather info also at:

UK Metoffice

WeatherCloud

Weather Underground

Northeastern Weather Network

AWEKAS

Citizen Weather Observer Program (CWOP)

HAMweather, WeatherForYou, PWS Weather


Weather Underground History page Text

Daily Summary for November 14, 2018 Units:  Metric    English   Both
« Previous Day
Next Day »
Daily Weekly Monthly Yearly Custom
  Current: High: Low: Average:
Temperature: 2.9 °C 6.1 °C 2.7 °C 4 °C
Dew Point: -3.9 °C 1.2 °C -4.4 °C -2.8 °C
Humidity: 61 % 71 % 55 % 61 %
Wind Speed: 5.8 km/h 21.1 km/h 0.5 km/h 10.3 km/h
Wind Gust: 20.4 km/h 38.9 km/h - -
Wind:NW - - WNW
Pressure: 1026.3 hPa 1026.3 hPa 1018.8 hPa -
Precipitation: 0 mm      
Historical Graphs
 
 
Tabular Data for November 14, 2018
Time Temperature Dew Point Pressure Wind Wind Speed Wind Gust Humidity Rainfall Rate (Hourly)
00:04 6.1 °C 1.1 °C 1018.8 hPa NW 9.7 km/h 16.7 km/h 70 % 0 mm
00:09 6.1 °C 1.1 °C 1018.8 hPa WNW 8.9 km/h 13 km/h 70 % 0 mm
00:14 6.1 °C 1 °C 1018.8 hPa NNW 13.7 km/h 25.9 km/h 70 % 0 mm
00:19 6.1 °C 1 °C 1019.2 hPa WNW 7.1 km/h 16.7 km/h 70 % 0 mm
00:24 6.1 °C 1 °C 1019.5 hPa NNW 2.9 km/h 14.8 km/h 70 % 0 mm
00:29 6.1 °C 0.8 °C 1019.5 hPa North 11.3 km/h 20.4 km/h 69 % 0 mm
00:34 6.1 °C 1 °C 1019.5 hPa NNW 7.1 km/h 9.3 km/h 70 % 0 mm
00:39 6.1 °C 1 °C 1019.5 hPa NNW 7.6 km/h 18.5 km/h 70 % 0 mm
00:44 6.1 °C 1.2 °C 1019.9 hPa WNW 7.4 km/h 18.5 km/h 71 % 0 mm
00:49 6 °C 0.9 °C 1019.5 hPa NW 8.5 km/h 18.5 km/h 70 % 0 mm
00:54 5.9 °C 0.7 °C 1019.5 hPa NNW 15.4 km/h 19.3 km/h 69 % 0 mm
00:59 5.9 °C 0.5 °C 1019.9 hPa West 12.1 km/h 29.6 km/h 68 % 0 mm
01:04 5.9 °C -0.2 °C 1019.9 hPa NNW 9.7 km/h 25.9 km/h 65 % 0 mm
01:09 5.8 °C -0.9 °C 1019.9 hPa NNW 10 km/h 38.9 km/h 62 % 0 mm
01:14 5.7 °C -1.2 °C 1020.2 hPa North 20.4 km/h 33.8 km/h 61 % 0 mm
01:19 5.7 °C -2.2 °C 1020.5 hPa WNW 17.2 km/h 33.3 km/h 57 % 0 mm
01:24 5.6 °C -2.3 °C 1020.2 hPa WNW 15.8 km/h 27.8 km/h 57 % 0 mm
01:29 5.6 °C -2.3 °C 1020.2 hPa NW 10.8 km/h 16.7 km/h 57 % 0 mm
01:34 5.4 °C -2.4 °C 1020.2 hPa NW 7.2 km/h 16.7 km/h 57 % 0 mm
01:39 5.4 °C -2.2 °C 1020.5 hPa NW 9.3 km/h 22.2 km/h 58 % 0 mm
01:44 5.3 °C -2.1 °C 1020.5 hPa NNW 9.8 km/h 17.7 km/h 59 % 0 mm
01:49 5.3 °C -2.3 °C 1020.5 hPa WNW 9.7 km/h 20.4 km/h 58 % 0 mm
01:54 5.2 °C -2.2 °C 1020.5 hPa NNW 6.9 km/h 14.8 km/h 59 % 0 mm
01:59 5.1 °C -2 °C 1020.5 hPa WNW 7.7 km/h 18.5 km/h 60 % 0 mm
02:04 5.1 °C -1.8 °C 1020.9 hPa WNW 0.5 km/h 6.4 km/h 61 % 0 mm
02:09 5 °C -2.1 °C 1020.9 hPa WNW 4.7 km/h 16.7 km/h 60 % 0 mm
02:14 4.9 °C -1.9 °C 1020.9 hPa NNW 7.9 km/h 11.1 km/h 61 % 0 mm
02:19 4.9 °C -2 °C 1020.9 hPa NNW 6.1 km/h 13 km/h 61 % 0 mm
02:24 4.8 °C -2.1 °C 1020.9 hPa WNW 11.1 km/h 18.5 km/h 61 % 0 mm
02:29 4.8 °C -2.3 °C 1020.9 hPa WNW 9 km/h 14.8 km/h 60 % 0 mm
02:34 4.7 °C -2.9 °C 1021.2 hPa WNW 12.7 km/h 18.5 km/h 58 % 0 mm
02:39 4.6 °C -2.9 °C 1021.2 hPa NW 10 km/h 27.8 km/h 58 % 0 mm
02:44 4.6 °C -3.2 °C 1021.2 hPa West 10.6 km/h 24.1 km/h 57 % 0 mm
02:49 4.5 °C -3.3 °C 1021.2 hPa WNW 12.9 km/h 22.5 km/h 57 % 0 mm
02:54 4.4 °C -3.9 °C 1021.6 hPa NW 13.8 km/h 31.5 km/h 55 % 0 mm
02:59 4.3 °C -3.7 °C 1021.6 hPa West 11.9 km/h 25.9 km/h 56 % 0 mm
03:04 4.3 °C -4 °C 1021.6 hPa NW 14.6 km/h 27.8 km/h 55 % 0 mm
03:09 4.2 °C -3.1 °C 1021.6 hPa WNW 11.7 km/h 18.5 km/h 59 % 0 mm
03:14 4.2 °C -3.1 °C 1021.6 hPa NNW 14.8 km/h 27.8 km/h 59 % 0 mm
03:19 4.1 °C -3.4 °C 1021.6 hPa West 13.5 km/h 16.7 km/h 58 % 0 mm
03:24 4 °C -3.6 °C 1021.6 hPa WSW 14.3 km/h 25.9 km/h 58 % 0 mm
03:29 3.9 °C -4.1 °C 1021.9 hPa WNW 21.1 km/h 25.7 km/h 56 % 0 mm
03:34 3.9 °C -3.9 °C 1021.6 hPa NW 9 km/h 29.6 km/h 57 % 0 mm
03:39 3.8 °C -3.9 °C 1021.9 hPa NW 15 km/h 18.5 km/h 57 % 0 mm
03:44 3.8 °C -3.7 °C 1021.6 hPa West 9.2 km/h 18.5 km/h 58 % 0 mm
03:49 3.7 °C -3.6 °C 1021.6 hPa WNW 8.5 km/h 27.8 km/h 59 % 0 mm
03:54 3.7 °C -4.1 °C 1021.6 hPa NW 10.8 km/h 18.5 km/h 57 % 0 mm
03:59 3.6 °C -3.4 °C 1021.6 hPa North 5.8 km/h 18.5 km/h 60 % 0 mm
04:04 3.6 °C -3.7 °C 1021.9 hPa NNW 14 km/h 18.5 km/h 59 % 0 mm
04:09 3.6 °C -3.7 °C 1022.2 hPa NW 5.5 km/h 18.5 km/h 59 % 0 mm
04:14 3.5 °C -3.3 °C 1022.2 hPa NW 6.9 km/h 13 km/h 61 % 0 mm
04:19 3.4 °C -3.6 °C 1022.2 hPa WNW 6.9 km/h 18.5 km/h 60 % 0 mm
04:24 3.4 °C -3.4 °C 1022.2 hPa NW 7.4 km/h 8 km/h 61 % 0 mm
04:29 3.4 °C -3.7 °C 1022.6 hPa NW 10 km/h 18.5 km/h 60 % 0 mm
04:34 3.3 °C -3.7 °C 1022.6 hPa North 10.8 km/h 14.8 km/h 60 % 0 mm
04:39 3.3 °C -3.7 °C 1022.6 hPa NW 17.5 km/h 29 km/h 60 % 0 mm
04:44 3.3 °C -3.6 °C 1022.6 hPa NNW 7.1 km/h 16.7 km/h 61 % 0 mm
04:49 3.3 °C -4 °C 1022.9 hPa WSW 5.3 km/h 18.5 km/h 59 % 0 mm
04:54 3.2 °C -4.1 °C 1022.9 hPa West 13 km/h 22.5 km/h 59 % 0 mm
04:59 3.2 °C -3.8 °C 1022.9 hPa NW 8.5 km/h 13 km/h 60 % 0 mm
05:04 3.2 °C -3.4 °C 1023.2 hPa WNW 10 km/h 16.1 km/h 62 % 0 mm
05:09 3.2 °C -3.8 °C 1023.2 hPa WNW 6.6 km/h 18.5 km/h 60 % 0 mm
05:14 3.1 °C -3.7 °C 1023.2 hPa WNW 8.2 km/h 16.7 km/h 61 % 0 mm
05:19 3.1 °C -3.5 °C 1023.2 hPa West 4.5 km/h 16.7 km/h 62 % 0 mm
05:24 3.1 °C -3.7 °C 1023.6 hPa WNW 12.4 km/h 17.7 km/h 61 % 0 mm
05:29 3.1 °C -3.9 °C 1023.2 hPa NW 13.8 km/h 24.1 km/h 60 % 0 mm
05:34 3 °C -3.6 °C 1023.6 hPa NW 9.7 km/h 18.5 km/h 62 % 0 mm
05:39 3 °C -3.8 °C 1023.6 hPa WNW 15.6 km/h 24.1 km/h 61 % 0 mm
05:44 3 °C -3.8 °C 1023.6 hPa WNW 9.7 km/h 18.5 km/h 61 % 0 mm
05:49 2.9 °C -4.1 °C 1023.6 hPa WNW 9.7 km/h 35.2 km/h 60 % 0 mm
05:54 2.9 °C -3.8 °C 1023.9 hPa West 9.5 km/h 25.9 km/h 61 % 0 mm
05:59 2.9 °C -3.8 °C 1023.9 hPa WNW 3.9 km/h 24.1 km/h 61 % 0 mm
06:04 2.9 °C -4.1 °C 1023.9 hPa NW 14.2 km/h 35.2 km/h 60 % 0 mm
06:09 2.9 °C -3.8 °C 1024.3 hPa NNW 12.7 km/h 20.4 km/h 61 % 0 mm
06:14 2.9 °C -4.1 °C 1024.3 hPa WNW 10.6 km/h 29.6 km/h 60 % 0 mm
06:19 2.9 °C -3.9 °C 1024.3 hPa WNW 6.4 km/h 24.1 km/h 61 % 0 mm
06:24 2.8 °C -3.9 °C 1024.6 hPa NNW 16.4 km/h 22.5 km/h 61 % 0 mm
06:29 2.8 °C -4.2 °C 1024.6 hPa NNW 5.5 km/h 20.4 km/h 60 % 0 mm
06:34 2.8 °C -3.7 °C 1024.6 hPa NW 16.6 km/h 25.9 km/h 62 % 0 mm
06:39 2.8 °C -3.5 °C 1024.9 hPa WNW 9.2 km/h 18.5 km/h 63 % 0 mm
06:44 2.8 °C -3.3 °C 1025.3 hPa West 10.3 km/h 20.4 km/h 64 % 0 mm
06:49 2.8 °C -3.5 °C 1024.9 hPa NW 13.7 km/h 16.7 km/h 63 % 0 mm
06:54 2.8 °C -3.5 °C 1025.3 hPa WNW 11.4 km/h 18.5 km/h 63 % 0 mm
06:59 2.9 °C -3.4 °C 1024.9 hPa NNE 10.3 km/h 27.8 km/h 63 % 0 mm
07:04 2.9 °C -3.3 °C 1025.3 hPa North 10.9 km/h 22.2 km/h 64 % 0 mm
07:09 2.8 °C -3.7 °C 1025.3 hPa NNW 13.4 km/h 29.6 km/h 62 % 0 mm
07:14 2.8 °C -3.7 °C 1025.3 hPa WSW 11.9 km/h 27.8 km/h 62 % 0 mm
07:19 2.8 °C -3.8 °C 1025.6 hPa NW 11.6 km/h 24.1 km/h 62 % 0 mm
07:24 2.8 °C -4 °C 1025.6 hPa NW 11.7 km/h 16.7 km/h 61 % 0 mm
07:29 2.7 °C -3.8 °C 1025.6 hPa West 14 km/h 20.4 km/h 62 % 0 mm
07:34 2.7 °C -4.1 °C 1026 hPa WSW 8 km/h 31.5 km/h 61 % 0 mm
07:39 2.7 °C -3.8 °C 1026 hPa NW 13 km/h 24.1 km/h 62 % 0 mm
07:44 2.7 °C -4.1 °C 1026 hPa WNW 14 km/h 20.4 km/h 61 % 0 mm
07:49 2.8 °C -4 °C 1026.3 hPa West 8.7 km/h 17.7 km/h 61 % 0 mm
07:54 2.8 °C -4.4 °C 1026.3 hPa SW 6.8 km/h 20.4 km/h 59 % 0 mm
07:59 2.8 °C -3.9 °C 1026.3 hPa WNW 7.4 km/h 16.7 km/h 61 % 0 mm
08:04 2.9 °C -3.9 °C 1026.3 hPa NW 5.8 km/h 20.4 km/h 61 % 0 mm
Crab Meadow Weather
Compliments of Weather Underground - 1.75 mb

Script developed by  Jim McMurry - jmcmurry@mwt.net Adapted for the template by  Wim van der Kuil - Leuven-Template.eu

Clouds: Partly sunny and partly cloudy indicate the same amount of cloud coverage - about 50 percent. Partly sunny is used during the daytime, and partly cloudy is used at night when there is no sun.